createdAt,value
2023-04-04T00:01:14.869Z,20.18
2023-04-04T00:06:19.075Z,20.12
2023-04-04T00:11:22.343Z,20.08
2023-04-04T00:16:25.120Z,20.01
2023-04-04T00:21:30.480Z,19.94
2023-04-04T00:26:34.462Z,19.91
2023-04-04T00:31:37.342Z,19.85
2023-04-04T00:36:41.584Z,19.79
2023-04-04T00:41:44.388Z,19.76
2023-04-04T00:46:47.138Z,19.69
2023-04-04T00:51:51.274Z,19.65
2023-04-04T00:56:55.600Z,19.62
2023-04-04T01:02:00.127Z,19.55
2023-04-04T01:07:04.512Z,19.53
2023-04-04T01:12:07.849Z,19.51
2023-04-04T01:17:10.777Z,19.45
2023-04-04T01:22:15.313Z,19.46
2023-04-04T01:27:21.466Z,19.44
2023-04-04T01:32:37.473Z,19.42
2023-04-04T01:37:45.556Z,19.33
2023-04-04T01:42:52.004Z,19.31
2023-04-04T01:47:56.771Z,19.26
2023-04-04T01:53:00.402Z,19.27
2023-04-04T01:58:04.533Z,19.24
2023-04-04T02:03:07.572Z,19.19
2023-04-04T02:08:10.626Z,19.24
2023-04-04T02:13:24.121Z,19.20
2023-04-04T02:18:28.345Z,19.20
2023-04-04T02:23:31.145Z,19.20
2023-04-04T02:28:35.555Z,19.16
2023-04-04T02:33:38.373Z,19.12
2023-04-04T02:38:43.073Z,19.13
2023-04-04T02:43:47.576Z,19.13
2023-04-04T02:48:52.009Z,19.13
2023-04-04T02:53:54.979Z,19.12
2023-04-04T02:59:05.494Z,19.11
2023-04-04T03:04:08.464Z,19.10
2023-04-04T03:09:12.006Z,19.06
2023-04-04T03:14:16.404Z,19.08
2023-04-04T03:19:19.863Z,19.06
2023-04-04T03:24:24.080Z,19.06
2023-04-04T03:29:29.340Z,19.09
2023-04-04T03:34:33.912Z,19.03
2023-04-04T03:39:36.845Z,19.01
2023-04-04T03:44:42.633Z,19.04
2023-04-04T03:49:52.735Z,18.96
2023-04-04T03:54:55.521Z,18.98
2023-04-04T03:59:59.609Z,18.96
2023-04-04T04:05:03.752Z,18.96
2023-04-04T04:10:07.557Z,18.95
2023-04-04T04:15:12.041Z,18.98
2023-04-04T04:20:17.256Z,18.94
2023-04-04T04:25:24.731Z,18.94
2023-04-04T04:30:39.363Z,18.88
2023-04-04T04:35:42.858Z,18.88
2023-04-04T04:40:46.179Z,18.87
2023-04-04T04:45:57.364Z,18.87
2023-04-04T04:51:00.692Z,18.84
2023-04-04T04:56:15.109Z,18.85
2023-04-04T05:01:21.362Z,18.84
2023-04-04T05:06:24.782Z,18.82
2023-04-04T05:11:28.354Z,18.81
2023-04-04T05:16:33.386Z,18.82
2023-04-04T05:21:37.574Z,18.83
2023-04-04T05:26:43.230Z,18.82
2023-04-04T05:31:47.748Z,18.80
2023-04-04T05:36:55.115Z,18.80
2023-04-04T05:41:59.080Z,18.80
2023-04-04T05:47:04.662Z,18.81
2023-04-04T05:52:07.540Z,18.81
2023-04-04T05:57:10.681Z,18.82
2023-04-04T06:02:25.607Z,18.82
2023-04-04T06:07:33.017Z,18.82
2023-04-04T06:12:35.924Z,18.82
2023-04-04T06:17:44.637Z,18.83
2023-04-04T06:22:48.094Z,18.82
2023-04-04T06:27:51.357Z,18.81
2023-04-04T06:32:55.655Z,18.83
2023-04-04T06:38:04.151Z,18.83
2023-04-04T06:43:07.557Z,18.87
2023-04-04T06:48:16.771Z,18.87
2023-04-04T06:53:23.088Z,18.88
2023-04-04T06:58:26.633Z,18.90
2023-04-04T07:03:31.219Z,18.90
2023-04-04T07:08:36.841Z,18.97
2023-04-04T07:13:39.946Z,19.01
2023-04-04T07:18:45.032Z,19.08
2023-04-04T07:23:47.857Z,19.21
2023-04-04T07:28:50.870Z,19.35
2023-04-04T07:33:56.404Z,19.44
2023-04-04T07:38:59.973Z,19.48
2023-04-04T07:44:02.825Z,19.54
2023-04-04T07:49:07.572Z,19.63
2023-04-04T07:54:10.694Z,19.65
2023-04-04T07:59:13.515Z,19.69
2023-04-04T08:04:18.095Z,19.77
2023-04-04T08:09:20.981Z,19.84
2023-04-04T08:14:23.999Z,19.93
2023-04-04T08:19:28.535Z,19.99
2023-04-04T08:24:31.334Z,20.03
2023-04-04T08:29:34.506Z,20.04
2023-04-04T08:34:38.759Z,20.04
2023-04-04T08:39:41.659Z,20.05
2023-04-04T08:44:45.597Z,20.06
2023-04-04T08:49:49.760Z,20.04
2023-04-04T08:54:52.732Z,20.05
2023-04-04T08:59:55.728Z,20.05
2023-04-04T09:05:06.183Z,20.07
2023-04-04T09:10:11.693Z,20.08
2023-04-04T09:15:14.630Z,20.09
2023-04-04T09:20:38.681Z,20.06
2023-04-04T09:25:56.324Z,20.09
2023-04-04T09:31:10.159Z,20.07
2023-04-04T09:36:15.544Z,20.09
2023-04-04T09:41:20.820Z,20.09
2023-04-04T09:46:25.229Z,20.06
2023-04-04T09:51:34.709Z,20.06
2023-04-04T09:56:39.160Z,20.10
2023-04-04T10:01:42.157Z,20.10
2023-04-04T10:06:46.310Z,20.07
2023-04-04T10:11:49.461Z,20.09
2023-04-04T10:16:52.343Z,20.07
2023-04-04T10:21:56.486Z,20.10
2023-04-04T10:26:59.392Z,20.15
2023-04-04T10:32:06.043Z,20.13
2023-04-04T10:37:13.761Z,20.11
2023-04-04T10:42:17.768Z,20.09
2023-04-04T10:47:23.094Z,20.09
2023-04-04T10:52:28.847Z,20.02
2023-04-04T10:57:32.338Z,18.56
2023-04-04T11:02:52.006Z,17.96
2023-04-04T11:13:14.044Z,18.42
2023-04-04T11:18:30.648Z,18.81
2023-04-04T11:24:13.714Z,19.16
2023-04-04T11:29:25.054Z,19.36
2023-04-04T11:34:31.391Z,19.51
2023-04-04T11:39:35.698Z,19.60
2023-04-04T11:44:41.856Z,19.75
2023-04-04T11:49:45.485Z,19.76
2023-04-04T11:54:50.155Z,19.90
2023-04-04T11:59:53.213Z,20.00
2023-04-04T12:04:56.277Z,19.90
2023-04-04T12:10:00.525Z,19.89
2023-04-04T12:15:16.648Z,19.93
2023-04-04T12:20:23.224Z,19.96
2023-04-04T12:25:28.467Z,20.00
2023-04-04T12:30:31.321Z,20.02
2023-04-04T12:35:34.489Z,20.11
2023-04-04T12:40:39.477Z,20.22
2023-04-04T12:45:44.212Z,20.27
2023-04-04T12:50:52.017Z,20.32
2023-04-04T12:55:57.019Z,20.47
2023-04-04T13:01:00.858Z,20.60
2023-04-04T13:06:04.147Z,20.72
2023-04-04T13:11:08.578Z,20.73
2023-04-04T13:16:11.960Z,20.72
2023-04-04T13:21:14.891Z,20.71
2023-04-04T13:26:19.103Z,20.87
2023-04-04T13:31:22.175Z,21.02
2023-04-04T13:36:25.425Z,20.98
2023-04-04T13:41:29.713Z,21.08
2023-04-04T13:46:32.832Z,21.11
2023-04-04T13:51:35.700Z,21.17
2023-04-04T13:56:40.605Z,21.20
2023-04-04T14:01:43.633Z,21.34
2023-04-04T14:06:47.192Z,21.37
2023-04-04T14:11:51.698Z,21.29
2023-04-04T14:16:54.528Z,21.31
2023-04-04T14:21:57.367Z,21.33
2023-04-04T14:27:01.594Z,21.49
2023-04-04T14:32:04.459Z,21.53
2023-04-04T14:37:08.095Z,21.51
2023-04-04T14:42:12.274Z,21.58
2023-04-04T14:47:15.509Z,21.56
2023-04-04T14:52:18.583Z,21.76
2023-04-04T14:57:22.712Z,22.06
2023-04-04T15:02:25.751Z,22.13
2023-04-04T15:07:28.591Z,22.32
2023-04-04T15:12:32.909Z,22.61
2023-04-04T15:17:36.454Z,22.66
2023-04-04T15:22:41.336Z,22.73
2023-04-04T15:27:45.480Z,22.95
2023-04-04T15:32:48.488Z,22.99
2023-04-04T15:37:51.465Z,23.04
2023-04-04T15:42:57.013Z,23.07
2023-04-04T15:48:00.105Z,23.13
2023-04-04T15:53:03.135Z,23.30
2023-04-04T15:58:07.364Z,23.46
2023-04-04T16:03:11.306Z,23.50
2023-04-04T16:08:14.722Z,23.63
2023-04-04T16:13:19.209Z,23.77
2023-04-04T16:18:22.314Z,23.88
2023-04-04T16:23:25.181Z,24.01
2023-04-04T16:28:29.404Z,24.06
2023-04-04T16:33:32.282Z,24.08
2023-04-04T16:38:35.455Z,24.04
2023-04-04T16:43:39.579Z,24.01
2023-04-04T16:48:42.553Z,24.04
2023-04-04T16:53:45.424Z,24.06
2023-04-04T16:58:49.766Z,24.02
2023-04-04T17:03:52.676Z,23.87
2023-04-04T17:08:55.878Z,23.68
2023-04-04T17:14:00.100Z,23.30
2023-04-04T17:19:03.088Z,23.07
2023-04-04T17:24:06.159Z,22.80
2023-04-04T17:29:10.508Z,22.60
2023-04-04T17:34:15.204Z,22.42
2023-04-04T17:39:18.499Z,22.28
2023-04-04T17:44:22.953Z,22.12
2023-04-04T17:49:27.279Z,21.94
2023-04-04T17:54:30.621Z,21.82
2023-04-04T17:59:34.875Z,21.67
2023-04-04T18:04:38.548Z,21.59
2023-04-04T18:09:41.784Z,21.45
2023-04-04T18:14:46.162Z,21.44
2023-04-04T18:19:49.013Z,21.37
2023-04-04T18:24:52.074Z,21.27
2023-04-04T18:29:56.567Z,21.22
2023-04-04T18:34:59.525Z,21.18
2023-04-04T18:40:03.321Z,21.06
2023-04-04T18:45:09.675Z,21.14
2023-04-04T18:50:12.492Z,21.10
2023-04-04T18:55:15.484Z,21.09
2023-04-04T19:00:19.972Z,21.10
2023-04-04T19:05:24.256Z,21.06
2023-04-04T19:10:27.435Z,21.03
2023-04-04T19:15:32.020Z,21.01
2023-04-04T19:20:35.416Z,20.98
2023-04-04T19:25:38.404Z,20.98
2023-04-04T19:30:44.309Z,20.97
2023-04-04T19:35:52.950Z,20.97
2023-04-04T19:40:57.625Z,20.94
2023-04-04T19:46:08.434Z,20.94
2023-04-04T19:51:12.969Z,20.94
2023-04-04T19:56:16.706Z,20.94
2023-04-04T20:01:23.282Z,20.93
2023-04-04T20:06:27.522Z,20.93
2023-04-04T20:11:32.247Z,20.93
2023-04-04T20:16:36.477Z,20.93
2023-04-04T20:21:39.584Z,20.95
2023-04-04T20:26:47.146Z,20.92
2023-04-04T20:31:52.321Z,20.91
2023-04-04T20:36:55.416Z,20.92
2023-04-04T20:41:58.407Z,20.94
2023-04-04T20:47:02.601Z,20.94
2023-04-04T20:52:05.423Z,20.97
2023-04-04T20:57:08.285Z,20.98
2023-04-04T21:02:16.912Z,20.98
2023-04-04T21:07:35.578Z,20.97
2023-04-04T21:12:38.540Z,20.91
2023-04-04T21:17:42.730Z,20.89
2023-04-04T21:22:45.896Z,20.90
2023-04-04T21:27:48.648Z,20.88
2023-04-04T21:32:52.769Z,20.89
2023-04-04T21:37:55.656Z,20.92
2023-04-04T21:42:58.488Z,20.88
2023-04-04T21:48:02.741Z,20.89
2023-04-04T21:53:05.685Z,20.88
2023-04-04T21:58:08.515Z,20.87
2023-04-04T22:03:12.646Z,20.83
2023-04-04T22:08:15.682Z,20.84
2023-04-04T22:13:18.858Z,20.85
2023-04-04T22:18:30.556Z,20.84
2023-04-04T22:23:35.561Z,20.83
2023-04-04T22:28:38.826Z,20.81
2023-04-04T22:33:43.452Z,20.79
2023-04-04T22:38:46.213Z,20.79
2023-04-04T22:43:49.013Z,20.79
2023-04-04T22:48:55.420Z,20.78
2023-04-04T22:53:58.216Z,20.74
2023-04-04T22:59:01.177Z,20.70
2023-04-04T23:04:05.615Z,20.64
2023-04-04T23:09:08.820Z,20.61
2023-04-04T23:14:14.685Z,20.58
2023-04-04T23:19:19.049Z,20.45
2023-04-04T23:24:23.221Z,20.44
2023-04-04T23:29:26.045Z,20.34
2023-04-04T23:34:30.343Z,20.25
2023-04-04T23:39:33.313Z,20.20
2023-04-04T23:44:36.265Z,20.11
2023-04-04T23:49:40.749Z,20.08
2023-04-04T23:54:43.653Z,20.00
2023-04-04T23:59:46.397Z,19.93
